Time;durP1;ratioP1;P1;durP2;ratioP2;P2;SDS_P1;SDS_P2;PMS_P1;PMS_P2;Temp;Humidity;BMP_temperature;BMP_pressure;BME280_temperature;BME280_humidity;BME280_pressure;Samples;Min_cycle;Max_cycle;Signal;HPM_P1;HPM_P2
2021/06/21 00:00:29;;;;;;;3.17;2.00;;;23.90;59.60;;;;;;5072534;28;20185;-69
2021/06/21 00:02:54;;;;;;;2.92;2.10;;;23.80;59.60;;;;;;5072264;28;20178;-68
2021/06/21 00:05:20;;;;;;;3.75;2.30;;;23.80;59.60;;;;;;5071832;28;20331;-69
2021/06/21 00:07:45;;;;;;;2.83;2.33;;;23.80;59.60;;;;;;5072199;28;20210;-69
2021/06/21 00:10:13;;;;;;;2.85;2.30;;;23.80;59.60;;;;;;5072115;28;20674;-70
2021/06/21 00:12:41;;;;;;;4.32;2.60;;;23.80;59.60;;;;;;5071505;28;20178;-69
2021/06/21 00:15:07;;;;;;;3.03;2.30;;;23.80;59.60;;;;;;5072308;28;20178;-69
2021/06/21 00:17:32;;;;;;;3.47;2.08;;;23.80;59.70;;;;;;5072396;28;20182;-69
2021/06/21 00:19:58;;;;;;;4.78;2.47;;;23.80;59.60;;;;;;5071986;28;20183;-70
2021/06/21 00:22:23;;;;;;;2.35;2.15;;;23.80;59.60;;;;;;5072274;28;20179;-69
2021/06/21 00:24:49;;;;;;;3.72;2.47;;;23.80;59.60;;;;;;5072025;28;21086;-68
2021/06/21 00:27:14;;;;;;;3.00;2.60;;;23.80;59.60;;;;;;5071437;28;20257;-68
2021/06/21 00:29:40;;;;;;;3.72;2.40;;;23.70;59.60;;;;;;5071691;28;20252;-68
2021/06/21 00:32:06;;;;;;;2.25;2.05;;;23.80;59.60;;;;;;5072197;28;20186;-70
2021/06/21 00:34:31;;;;;;;2.53;2.33;;;23.70;59.50;;;;;;5071560;28;20628;-69
2021/06/21 00:36:57;;;;;;;3.42;2.53;;;23.70;59.60;;;;;;5071969;28;20529;-69
2021/06/21 00:39:22;;;;;;;2.53;2.33;;;23.70;59.50;;;;;;5072185;28;20170;-69
2021/06/21 00:41:48;;;;;;;2.92;2.53;;;23.70;59.60;;;;;;5071146;28;20194;-69
2021/06/21 00:44:13;;;;;;;2.38;2.17;;;23.70;59.60;;;;;;5071597;28;20261;-68
2021/06/21 00:46:39;;;;;;;3.17;2.42;;;23.70;59.70;;;;;;5071621;28;20524;-69
2021/06/21 00:49:04;;;;;;;5.13;2.78;;;23.70;59.60;;;;;;5071348;28;20212;-68
2021/06/21 00:51:30;;;;;;;2.80;2.50;;;23.70;59.50;;;;;;5071266;28;20264;-68
2021/06/21 00:53:55;;;;;;;3.00;2.20;;;23.70;59.40;;;;;;5054073;28;20178;-68
2021/06/21 00:56:22;;;;;;;4.18;2.80;;;23.70;59.40;;;;;;5053368;28;20182;-68
2021/06/21 00:58:49;;;;;;;3.42;2.35;;;23.70;59.30;;;;;;5052846;28;20194;-68
2021/06/21 01:01:14;;;;;;;2.95;2.50;;;23.70;59.20;;;;;;5053478;28;20247;-69
2021/06/21 01:03:40;;;;;;;4.05;2.65;;;23.70;59.10;;;;;;5071412;28;20554;-68
2021/06/21 01:06:05;;;;;;;2.80;2.58;;;23.70;59.10;;;;;;5071613;28;20183;-70
2021/06/21 01:08:31;;;;;;;3.88;3.10;;;23.70;59.10;;;;;;5070907;28;20178;-68
2021/06/21 01:10:57;;;;;;;4.03;2.72;;;23.70;59.00;;;;;;5071653;28;20210;-69
2021/06/21 01:13:52;;;;;;;3.10;2.80;;;23.70;59.00;;;;;;5053512;28;20178;-69
2021/06/21 01:16:20;;;;;;;3.90;2.90;;;23.60;58.80;;;;;;5053099;28;20597;-68
2021/06/21 01:18:52;;;;;;;4.72;2.90;;;23.60;58.80;;;;;;5071259;28;20545;-68
2021/06/21 01:21:35;;;;;;;3.03;2.83;;;23.60;58.80;;;;;;5071610;28;20590;-68
2021/06/21 01:24:11;;;;;;;2.78;2.58;;;23.60;58.80;;;;;;5038002;28;20186;-68
2021/06/21 01:26:43;;;;;;;2.80;2.60;;;23.60;58.80;;;;;;5053105;28;20279;-68
2021/06/21 01:29:27;;;;;;;2.70;2.50;;;23.60;58.80;;;;;;5054086;28;20632;-68
2021/06/21 01:32:01;;;;;;;2.60;2.40;;;23.60;58.90;;;;;;5071322;28;20182;-68
2021/06/21 01:34:27;;;;;;;3.75;3.17;;;23.60;58.80;;;;;;5053246;28;20253;-68
2021/06/21 01:36:53;;;;;;;4.07;2.53;;;23.60;58.80;;;;;;5053043;28;20212;-68
2021/06/21 01:39:18;;;;;;;3.30;2.40;;;23.60;58.60;;;;;;5055269;28;20177;-69
2021/06/21 01:41:44;;;;;;;2.92;2.63;;;23.60;58.50;;;;;;5057142;28;20178;-69
2021/06/21 01:44:10;;;;;;;3.35;2.80;;;23.60;58.60;;;;;;5040447;28;20178;-69
2021/06/21 01:46:36;;;;;;;2.85;2.60;;;23.60;58.50;;;;;;5074749;28;20174;-68
2021/06/21 01:49:03;;;;;;;3.97;2.70;;;23.60;58.60;;;;;;5040649;28;20643;-68
2021/06/21 01:51:30;;;;;;;2.85;2.65;;;23.60;58.70;;;;;;5074554;28;20713;-68
2021/06/21 01:53:56;;;;;;;4.65;2.70;;;23.50;58.50;;;;;;5056959;28;20179;-68
2021/06/21 01:56:29;;;;;;;3.28;2.70;;;23.50;58.60;;;;;;5040129;28;20577;-68
2021/06/21 01:58:55;;;;;;;2.80;2.55;;;23.50;58.40;;;;;;5074136;28;20286;-68
2021/06/21 02:01:21;;;;;;;2.88;2.50;;;23.50;58.40;;;;;;5074329;28;20174;-68
2021/06/21 02:03:48;;;;;;;4.10;2.85;;;23.50;58.30;;;;;;5056664;28;20684;-68
2021/06/21 02:06:14;;;;;;;2.30;2.20;;;23.50;58.40;;;;;;5074288;28;20223;-68
2021/06/21 02:08:40;;;;;;;2.70;2.50;;;23.50;58.40;;;;;;5039791;28;20171;-68
2021/06/21 02:11:06;;;;;;;2.55;2.20;;;23.50;58.30;;;;;;5039784;28;20214;-69
2021/06/21 02:13:32;;;;;;;2.58;2.30;;;23.50;58.40;;;;;;5055537;28;20178;-68
2021/06/21 02:15:57;;;;;;;2.22;2.03;;;23.50;58.50;;;;;;5039552;28;20175;-68
2021/06/21 02:18:23;;;;;;;2.53;2.33;;;23.50;58.40;;;;;;5040068;28;20173;-68
2021/06/21 02:20:50;;;;;;;2.75;2.50;;;23.50;58.30;;;;;;5039250;28;20206;-68
2021/06/21 02:23:16;;;;;;;2.45;2.25;;;23.50;58.30;;;;;;5039688;28;20636;-68
2021/06/21 02:25:42;;;;;;;2.92;2.55;;;23.50;58.20;;;;;;5038811;28;20244;-68
2021/06/21 02:28:07;;;;;;;2.67;2.47;;;23.50;58.20;;;;;;5039789;28;20542;-68
2021/06/21 02:30:34;;;;;;;2.65;2.30;;;23.50;58.40;;;;;;5039153;28;20218;-68
2021/06/21 02:32:59;;;;;;;2.53;2.30;;;23.50;58.30;;;;;;5039537;28;20565;-69
2021/06/21 02:35:25;;;;;;;2.42;2.22;;;23.40;58.20;;;;;;5039073;28;20661;-68
2021/06/21 02:37:51;;;;;;;2.65;2.28;;;23.40;58.10;;;;;;5055587;28;20628;-70
2021/06/21 02:40:16;;;;;;;2.35;2.15;;;23.40;58.20;;;;;;5055425;28;20171;-69
2021/06/21 02:42:42;;;;;;;1.90;1.80;;;23.40;58.10;;;;;;5073361;28;20163;-68
2021/06/21 02:45:08;;;;;;;1.92;1.83;;;23.40;58.20;;;;;;5073783;28;20629;-68
2021/06/21 02:47:34;;;;;;;2.42;2.08;;;23.40;58.30;;;;;;5072968;28;20174;-68
2021/06/21 02:50:00;;;;;;;2.95;2.05;;;23.40;58.10;;;;;;5055318;28;20233;-68
2021/06/21 02:52:37;;;;;;;1.98;1.77;;;23.40;57.90;;;;;;5055677;28;20615;-68
2021/06/21 02:55:10;;;;;;;1.95;1.73;;;23.40;57.80;;;;;;5056074;28;20174;-68
2021/06/21 02:58:01;;;;;;;2.05;1.92;;;23.40;57.90;;;;;;5039003;28;20181;-68
2021/06/21 03:00:27;;;;;;;3.58;2.08;;;23.40;58.10;;;;;;5040197;28;20231;-68
2021/06/21 03:02:55;;;;;;;2.28;1.83;;;23.40;58.00;;;;;;5072834;28;20179;-68
2021/06/21 03:05:21;;;;;;;1.75;1.63;;;23.40;58.10;;;;;;5073237;28;20637;-68
2021/06/21 03:07:48;;;;;;;2.10;1.80;;;23.30;57.80;;;;;;5054681;28;20205;-68
2021/06/21 03:10:14;;;;;;;1.95;1.30;;;23.40;57.90;;;;;;5039118;28;20218;-68
2021/06/21 03:12:39;;;;;;;2.20;1.75;;;23.40;57.70;;;;;;5038458;28;20175;-68
2021/06/21 03:15:05;;;;;;;1.88;1.77;;;23.30;57.70;;;;;;5038017;28;20188;-68
2021/06/21 03:17:33;;;;;;;1.55;1.42;;;23.30;57.80;;;;;;5055073;28;20221;-67
2021/06/21 03:19:59;;;;;;;2.22;1.75;;;23.30;57.80;;;;;;5038845;28;20181;-68
2021/06/21 03:22:26;;;;;;;1.67;1.55;;;23.30;57.70;;;;;;5054835;28;20179;-67
2021/06/21 03:24:52;;;;;;;1.70;1.60;;;23.30;57.70;;;;;;5054928;28;20636;-68
2021/06/21 03:27:25;;;;;;;1.67;1.48;;;23.30;57.60;;;;;;5073026;28;20222;-68
2021/06/21 03:29:51;;;;;;;2.13;1.92;;;23.30;57.90;;;;;;5054469;28;20324;-68
2021/06/21 03:32:25;;;;;;;1.75;1.65;;;23.30;57.60;;;;;;5038527;28;20633;-68
2021/06/21 03:34:51;;;;;;;1.77;1.65;;;23.30;57.70;;;;;;5072827;28;20197;-67
2021/06/21 03:37:16;;;;;;;1.42;1.30;;;23.30;57.70;;;;;;5072426;28;20189;-68
2021/06/21 03:39:42;;;;;;;1.40;1.30;;;23.30;58.00;;;;;;5072558;28;20170;-68
2021/06/21 03:42:07;;;;;;;1.23;1.23;;;23.30;57.70;;;;;;5072941;28;20166;-68
2021/06/21 03:44:33;;;;;;;1.58;1.10;;;23.30;57.60;;;;;;5072016;28;20539;-68
2021/06/21 03:46:58;;;;;;;1.80;1.30;;;23.30;57.80;;;;;;5072569;28;20280;-68
2021/06/21 03:49:24;;;;;;;1.67;1.58;;;23.30;57.80;;;;;;5072716;28;20179;-67
2021/06/21 03:51:49;;;;;;;1.40;1.30;;;23.30;57.50;;;;;;5071593;28;20304;-68
2021/06/21 03:54:15;;;;;;;1.40;1.30;;;23.30;57.60;;;;;;5072131;28;20468;-67
2021/06/21 03:56:40;;;;;;;1.70;1.52;;;23.20;57.50;;;;;;5072337;28;20276;-68
2021/06/21 03:59:06;;;;;;;1.20;1.15;;;23.20;57.70;;;;;;5071896;28;20175;-68
2021/06/21 04:01:31;;;;;;;1.50;1.40;;;23.20;57.40;;;;;;5071619;28;20253;-68
2021/06/21 04:03:59;;;;;;;1.30;1.20;;;23.20;57.40;;;;;;5072067;28;20181;-69
2021/06/21 04:06:24;;;;;;;1.40;1.30;;;23.20;57.40;;;;;;5072093;28;20186;-67
2021/06/21 04:08:50;;;;;;;1.40;1.27;;;23.20;57.40;;;;;;5072037;28;20174;-68
2021/06/21 04:11:15;;;;;;;2.00;1.30;;;23.20;57.40;;;;;;5071910;28;20213;-69
2021/06/21 04:13:41;;;;;;;1.33;1.23;;;23.20;57.30;;;;;;5071852;28;20170;-67
2021/06/21 04:16:06;;;;;;;1.30;1.20;;;23.20;57.30;;;;;;5072441;28;20605;-68
2021/06/21 04:18:32;;;;;;;1.33;1.13;;;23.20;57.30;;;;;;5071379;28;20177;-68
2021/06/21 04:20:57;;;;;;;1.00;1.00;;;23.20;57.50;;;;;;5071886;28;20580;-68
2021/06/21 04:23:23;;;;;;;1.00;1.00;;;23.20;57.40;;;;;;5072380;28;20196;-67
2021/06/21 04:25:48;;;;;;;1.38;1.27;;;23.10;57.20;;;;;;5071124;28;20962;-68
2021/06/21 04:28:14;;;;;;;1.10;1.10;;;23.10;57.30;;;;;;5071975;28;20194;-68
2021/06/21 04:30:40;;;;;;;0.82;0.82;;;23.10;57.20;;;;;;5071631;28;20218;-67
2021/06/21 04:33:05;;;;;;;1.27;1.10;;;23.10;57.30;;;;;;5071551;28;20217;-68
2021/06/21 04:35:31;;;;;;;1.13;0.90;;;23.10;57.20;;;;;;5071496;28;20209;-69
2021/06/21 04:37:57;;;;;;;1.08;1.08;;;23.10;57.20;;;;;;5071863;28;20206;-70
2021/06/21 04:40:28;;;;;;;0.73;0.63;;;23.10;57.10;;;;;;5071428;28;20199;-68
2021/06/21 04:42:53;;;;;;;1.30;0.85;;;23.10;57.00;;;;;;5071281;28;20583;-68
2021/06/21 04:45:19;;;;;;;1.50;1.23;;;23.10;57.10;;;;;;5071674;28;20624;-68
2021/06/21 04:47:45;;;;;;;1.48;1.10;;;23.10;57.10;;;;;;5071116;28;20585;-68
2021/06/21 04:50:13;;;;;;;0.85;0.85;;;23.10;57.10;;;;;;5071514;28;20221;-68
2021/06/21 04:52:39;;;;;;;1.05;1.00;;;23.10;57.00;;;;;;5071479;28;20683;-68
2021/06/21 04:55:05;;;;;;;0.90;0.90;;;23.10;57.10;;;;;;5071315;28;20555;-68
2021/06/21 04:57:33;;;;;;;1.13;0.90;;;23.10;56.90;;;;;;5070984;28;20640;-68
2021/06/21 04:59:58;;;;;;;1.25;0.70;;;23.10;57.00;;;;;;5071809;28;20187;-69
2021/06/21 05:02:24;;;;;;;0.80;0.80;;;23.10;57.00;;;;;;5071263;28;20170;-67
2021/06/21 05:04:49;;;;;;;1.25;1.00;;;23.00;57.10;;;;;;5071112;28;20559;-68
2021/06/21 05:07:15;;;;;;;0.85;0.85;;;23.00;57.20;;;;;;5071587;28;20688;-69
2021/06/21 05:09:42;;;;;;;0.90;0.90;;;23.00;57.00;;;;;;5071201;28;20206;-68
2021/06/21 05:12:08;;;;;;;0.65;0.60;;;23.00;57.20;;;;;;5054027;28;20198;-69
2021/06/21 05:14:34;;;;;;;1.45;0.90;;;23.00;57.10;;;;;;5073514;28;20179;-68
2021/06/21 05:17:00;;;;;;;1.13;0.88;;;23.00;57.50;;;;;;5075583;28;20178;-67
2021/06/21 05:19:25;;;;;;;1.35;0.88;;;23.00;57.80;;;;;;5075698;28;20174;-67
2021/06/21 05:21:51;;;;;;;1.58;0.93;;;23.00;57.90;;;;;;5075042;28;20174;-68
2021/06/21 05:24:17;;;;;;;0.80;0.80;;;23.00;58.00;;;;;;5075358;28;20563;-68
2021/06/21 05:26:43;;;;;;;1.25;1.00;;;23.00;58.00;;;;;;5075186;28;20230;-68
2021/06/21 05:29:08;;;;;;;0.90;0.90;;;23.10;58.00;;;;;;5074945;28;20514;-68
2021/06/21 05:31:34;;;;;;;0.90;0.90;;;23.00;58.10;;;;;;5074823;28;20218;-68
2021/06/21 05:33:59;;;;;;;0.80;0.80;;;23.10;58.10;;;;;;5075097;28;20231;-69
2021/06/21 05:36:25;;;;;;;1.45;1.00;;;23.00;58.10;;;;;;5074856;28;20245;-69
2021/06/21 05:38:50;;;;;;;1.85;1.10;;;23.00;58.10;;;;;;5074972;28;20174;-68
2021/06/21 05:41:16;;;;;;;0.82;0.82;;;23.00;58.10;;;;;;5075140;28;20524;-69
2021/06/21 05:43:41;;;;;;;0.80;0.80;;;23.10;58.30;;;;;;5074249;28;20178;-68
2021/06/21 05:46:07;;;;;;;0.90;0.90;;;23.00;58.20;;;;;;5075033;28;20171;-68
2021/06/21 05:48:32;;;;;;;0.77;0.77;;;23.00;58.30;;;;;;5074487;28;20272;-67
2021/06/21 05:51:01;;;;;;;2.78;1.33;;;23.00;58.30;;;;;;5074263;28;20698;-68
2021/06/21 05:53:29;;;;;;;0.82;0.80;;;23.00;58.30;;;;;;5074877;28;20182;-67
2021/06/21 05:55:56;;;;;;;3.15;1.40;;;23.00;58.30;;;;;;5074821;28;20186;-68
2021/06/21 05:58:21;;;;;;;1.20;1.00;;;23.00;58.40;;;;;;5074403;28;20629;-67
2021/06/21 06:00:47;;;;;;;1.38;1.00;;;23.00;58.40;;;;;;5074453;28;20183;-68
2021/06/21 06:03:12;;;;;;;1.25;0.95;;;23.00;58.50;;;;;;5074629;28;20177;-71
2021/06/21 06:05:38;;;;;;;1.88;0.90;;;23.00;58.60;;;;;;5074195;28;20170;-71
2021/06/21 06:08:04;;;;;;;2.22;1.15;;;23.00;58.70;;;;;;5074837;28;20269;-71
2021/06/21 06:10:29;;;;;;;1.33;0.95;;;23.00;58.80;;;;;;5074687;28;20202;-69
2021/06/21 06:12:55;;;;;;;0.80;0.80;;;23.00;58.70;;;;;;5073974;28;20166;-68
2021/06/21 06:15:20;;;;;;;1.30;0.98;;;23.00;58.20;;;;;;5074534;28;20170;-67
2021/06/21 06:17:46;;;;;;;4.85;1.00;;;23.00;58.30;;;;;;5073558;28;20507;-67
2021/06/21 06:20:11;;;;;;;1.92;0.93;;;23.00;58.70;;;;;;5074543;28;20251;-72
2021/06/21 06:22:37;;;;;;;1.35;0.90;;;23.00;59.00;;;;;;5056397;28;20308;-68
2021/06/21 06:25:04;;;;;;;1.50;1.08;;;22.90;58.80;;;;;;5073629;28;20189;-68
2021/06/21 06:27:30;;;;;;;2.97;1.10;;;23.00;59.00;;;;;;5073715;28;20230;-68
2021/06/21 06:29:55;;;;;;;1.20;0.98;;;23.00;58.90;;;;;;5074191;28;20217;-70
2021/06/21 06:32:21;;;;;;;2.45;1.13;;;23.00;58.90;;;;;;5073950;28;20167;-69
2021/06/21 06:34:46;;;;;;;0.93;0.90;;;23.00;58.90;;;;;;5073895;28;20185;-70
2021/06/21 06:37:12;;;;;;;1.25;0.60;;;23.00;58.90;;;;;;5074179;28;20173;-70
2021/06/21 06:39:38;;;;;;;1.83;0.90;;;23.00;59.00;;;;;;5073506;28;20187;-71
2021/06/21 06:42:04;;;;;;;1.20;1.05;;;23.00;59.00;;;;;;5073916;28;20588;-70
2021/06/21 06:44:30;;;;;;;1.25;0.82;;;23.00;59.00;;;;;;5073799;28;20617;-69
2021/06/21 06:46:56;;;;;;;2.05;0.80;;;23.00;59.00;;;;;;5073475;28;20190;-68
2021/06/21 06:49:21;;;;;;;1.90;0.93;;;23.00;59.00;;;;;;5073799;28;20633;-68
2021/06/21 06:51:52;;;;;;;2.67;1.00;;;23.00;59.10;;;;;;5054893;28;20190;-67
2021/06/21 06:57:04;;;;;;;2.33;0.88;;;23.00;59.00;;;;;;5059383;28;20278;-66
2021/06/21 06:59:34;;;;;;;2.08;0.90;;;23.00;59.10;;;;;;5053538;28;20640;-66
2021/06/21 07:02:01;;;;;;;1.33;1.00;;;23.00;59.10;;;;;;5053027;28;20668;-66
2021/06/21 07:04:26;;;;;;;2.08;1.10;;;23.00;59.10;;;;;;5053819;28;20190;-67
2021/06/21 07:06:52;;;;;;;0.80;0.70;;;23.00;59.10;;;;;;5053132;28;20179;-66
2021/06/21 07:09:18;;;;;;;2.08;0.90;;;23.00;59.10;;;;;;5053609;28;20525;-68
2021/06/21 07:11:43;;;;;;;1.73;0.93;;;23.00;59.30;;;;;;5053069;28;20202;-68
2021/06/21 07:14:09;;;;;;;4.38;1.02;;;23.00;59.30;;;;;;5053271;28;20175;-68
2021/06/21 07:16:35;;;;;;;2.15;0.70;;;23.00;59.20;;;;;;5053158;28;20677;-68
2021/06/21 07:19:00;;;;;;;1.33;0.90;;;22.90;59.20;;;;;;5053795;28;20633;-67
2021/06/21 07:21:26;;;;;;;1.00;0.75;;;22.90;59.30;;;;;;5053089;28;20277;-67
2021/06/21 07:23:51;;;;;;;2.05;0.80;;;22.90;59.30;;;;;;5052981;28;20174;-67
2021/06/21 07:26:17;;;;;;;1.77;0.75;;;22.90;59.30;;;;;;5052928;28;20257;-67
2021/06/21 07:28:43;;;;;;;0.70;0.70;;;22.90;59.30;;;;;;5052543;28;20257;-67
2021/06/21 07:31:09;;;;;;;0.73;0.73;;;22.90;59.30;;;;;;5052982;28;20314;-68
2021/06/21 07:33:35;;;;;;;1.02;0.63;;;22.90;59.30;;;;;;5053343;28;20175;-68
2021/06/21 07:36:00;;;;;;;1.10;0.60;;;22.90;59.30;;;;;;5052039;28;20678;-70
2021/06/21 07:38:26;;;;;;;2.50;0.70;;;22.90;59.30;;;;;;5052934;28;20182;-68
2021/06/21 07:40:51;;;;;;;0.93;0.70;;;22.90;59.30;;;;;;5052827;28;20178;-68
2021/06/21 07:43:17;;;;;;;0.95;0.73;;;22.90;59.30;;;;;;5052599;28;20206;-69
2021/06/21 07:45:43;;;;;;;1.60;0.60;;;22.90;59.30;;;;;;5052649;28;20186;-68
2021/06/21 07:48:09;;;;;;;1.35;0.60;;;22.90;59.30;;;;;;5053009;28;20198;-68
2021/06/21 07:50:34;;;;;;;0.85;0.60;;;22.90;59.30;;;;;;5052118;28;20242;-67
2021/06/21 07:53:02;;;;;;;1.17;0.77;;;22.90;59.20;;;;;;5052771;28;20250;-67
2021/06/21 07:55:28;;;;;;;0.68;0.50;;;22.90;59.30;;;;;;5053080;28;20244;-67
2021/06/21 07:57:56;;;;;;;0.95;0.65;;;22.90;59.20;;;;;;5051922;28;20238;-67
2021/06/21 08:00:24;;;;;;;1.98;0.82;;;22.90;59.30;;;;;;5052644;28;20179;-68
2021/06/21 08:02:50;;;;;;;1.10;0.70;;;22.90;59.30;;;;;;5052306;28;20569;-69
2021/06/21 08:05:16;;;;;;;1.08;0.70;;;22.90;59.20;;;;;;5051871;28;20628;-70
2021/06/21 08:07:42;;;;;;;3.05;0.75;;;22.80;58.90;;;;;;5052395;28;20260;-68
2021/06/21 08:10:08;;;;;;;2.28;0.88;;;22.80;58.80;;;;;;5051915;28;20290;-70
2021/06/21 08:12:33;;;;;;;1.02;0.60;;;22.80;59.00;;;;;;5052098;28;20186;-68
2021/06/21 08:14:59;;;;;;;1.30;0.60;;;22.80;59.00;;;;;;5052306;28;20171;-67
2021/06/21 08:17:24;;;;;;;2.67;0.50;;;22.80;58.90;;;;;;5052021;28;20197;-67
2021/06/21 08:19:50;;;;;;;2.13;0.80;;;22.80;59.00;;;;;;5051735;28;20171;-68
2021/06/21 08:22:21;;;;;;;1.20;0.70;;;22.80;59.00;;;;;;5052298;28;20532;-68
2021/06/21 08:24:47;;;;;;;2.55;0.60;;;22.90;58.90;;;;;;5051485;28;20175;-67
2021/06/21 08:27:13;;;;;;;1.20;0.60;;;22.90;59.00;;;;;;5051974;28;20233;-67
2021/06/21 08:29:38;;;;;;;0.88;0.63;;;22.90;59.00;;;;;;5051974;28;20171;-67
2021/06/21 08:32:04;;;;;;;2.80;0.68;;;22.90;59.10;;;;;;5051534;28;20194;-69
2021/06/21 08:34:30;;;;;;;1.13;0.60;;;22.90;59.20;;;;;;5065863;28;20197;-68
2021/06/21 08:36:55;;;;;;;0.73;0.52;;;22.90;59.20;;;;;;5071399;28;20663;-68
2021/06/21 08:39:21;;;;;;;0.65;0.40;;;22.90;59.30;;;;;;5087149;28;20542;-68
2021/06/21 08:41:46;;;;;;;1.38;0.50;;;22.80;59.30;;;;;;5091097;28;20261;-68
2021/06/21 08:44:12;;;;;;;3.72;0.80;;;22.80;59.30;;;;;;5053846;28;20656;-68
2021/06/21 08:46:37;;;;;;;0.85;0.40;;;22.80;59.40;;;;;;5053242;28;20170;-67
2021/06/21 08:49:03;;;;;;;2.72;0.70;;;22.80;59.30;;;;;;5071384;28;20174;-67
2021/06/21 08:51:28;;;;;;;1.20;0.60;;;22.80;59.50;;;;;;5081997;28;20344;-67
2021/06/21 08:53:54;;;;;;;1.70;0.60;;;22.80;59.40;;;;;;5091225;28;20209;-67
2021/06/21 08:56:19;;;;;;;0.60;0.47;;;22.80;59.40;;;;;;5091903;28;20184;-67
2021/06/21 08:58:45;;;;;;;0.95;0.60;;;22.80;59.40;;;;;;5091735;28;20172;-67
2021/06/21 09:01:10;;;;;;;1.05;0.55;;;22.80;59.40;;;;;;5091087;28;20546;-68
2021/06/21 09:03:36;;;;;;;1.25;0.50;;;22.80;59.50;;;;;;5091486;28;20174;-67
2021/06/21 09:06:02;;;;;;;0.52;0.38;;;22.80;59.40;;;;;;5092024;28;20177;-68
2021/06/21 09:08:28;;;;;;;0.63;0.47;;;22.80;59.50;;;;;;5081588;28;20167;-67
2021/06/21 09:10:53;;;;;;;0.60;0.50;;;22.80;59.40;;;;;;5071434;28;20267;-68
2021/06/21 09:13:19;;;;;;;0.40;0.40;;;22.80;59.40;;;;;;5071804;28;20171;-67
2021/06/21 09:15:52;;;;;;;0.93;0.60;;;22.80;59.50;;;;;;5070730;28;20178;-67
2021/06/21 09:18:36;;;;;;;1.02;0.50;;;22.80;59.40;;;;;;5054805;28;20180;-67
2021/06/21 09:21:23;;;;;;;0.47;0.47;;;22.70;59.30;;;;;;5070970;28;20666;-67
2021/06/21 09:23:50;;;;;;;1.33;0.77;;;22.80;59.50;;;;;;5070887;28;20171;-67
2021/06/21 09:26:21;;;;;;;0.45;0.45;;;22.70;59.40;;;;;;5071427;28;20624;-67
2021/06/21 09:28:46;;;;;;;0.98;0.70;;;22.80;59.40;;;;;;5070803;28;20300;-66
2021/06/21 09:31:12;;;;;;;0.60;0.60;;;22.70;59.30;;;;;;5071164;28;20296;-67
2021/06/21 09:33:37;;;;;;;0.40;0.40;;;22.70;59.40;;;;;;5071324;28;20170;-67
2021/06/21 09:36:04;;;;;;;0.55;0.50;;;22.70;59.20;;;;;;5071132;28;20201;-69
2021/06/21 09:38:29;;;;;;;0.30;0.30;;;22.70;59.20;;;;;;5070991;28;20595;-68
2021/06/21 09:40:56;;;;;;;0.50;0.50;;;22.70;59.30;;;;;;5071310;28;20359;-67
2021/06/21 09:43:30;;;;;;;0.38;0.30;;;22.80;59.40;;;;;;5086444;28;20173;-67
2021/06/21 09:46:10;;;;;;;0.55;0.55;;;22.80;59.40;;;;;;5078384;28;20192;-70
2021/06/21 09:48:44;;;;;;;0.70;0.40;;;22.80;59.50;;;;;;5070615;28;20225;-66
2021/06/21 09:51:26;;;;;;;1.40;0.50;;;22.80;59.40;;;;;;5070931;28;20690;-66
2021/06/21 09:54:11;;;;;;;1.13;0.50;;;22.80;59.20;;;;;;5071128;28;20320;-66
2021/06/21 09:56:45;;;;;;;0.60;0.60;;;22.80;59.20;;;;;;5070281;28;20525;-66
2021/06/21 09:59:27;;;;;;;0.47;0.47;;;22.80;59.20;;;;;;5070997;28;20213;-67
2021/06/21 10:02:06;;;;;;;0.55;0.50;;;22.80;59.10;;;;;;5074685;28;20508;-67
2021/06/21 10:04:32;;;;;;;1.95;0.70;;;22.80;59.10;;;;;;5073854;28;20174;-67
2021/06/21 10:06:58;;;;;;;2.45;0.75;;;22.80;59.10;;;;;;5074621;28;20198;-68
2021/06/21 10:09:23;;;;;;;1.90;0.60;;;22.80;59.20;;;;;;5074682;28;20197;-67
2021/06/21 10:11:49;;;;;;;0.95;0.40;;;22.80;59.00;;;;;;5055901;28;20453;-68
2021/06/21 10:14:16;;;;;;;0.47;0.45;;;22.70;58.90;;;;;;5074783;28;20174;-67
2021/06/21 10:16:43;;;;;;;0.80;0.50;;;22.80;59.20;;;;;;5074116;28;20259;-67
2021/06/21 10:19:08;;;;;;;0.75;0.60;;;22.80;59.30;;;;;;5074269;28;20170;-66
2021/06/21 10:21:35;;;;;;;1.70;0.60;;;22.80;59.30;;;;;;5074073;28;20227;-66
2021/06/21 10:24:01;;;;;;;3.47;0.70;;;22.80;59.10;;;;;;5074024;28;20178;-67
2021/06/21 10:26:26;;;;;;;0.65;0.60;;;22.80;58.90;;;;;;5074110;28;20218;-67
2021/06/21 10:28:52;;;;;;;0.68;0.60;;;22.80;59.00;;;;;;5074211;28;20648;-67
2021/06/21 10:31:20;;;;;;;1.75;0.50;;;22.80;59.00;;;;;;5073688;28;20598;-67
2021/06/21 10:33:46;;;;;;;1.17;0.68;;;22.80;59.00;;;;;;5073747;28;20255;-68
2021/06/21 10:36:11;;;;;;;0.50;0.50;;;22.80;59.00;;;;;;5040002;28;20572;-68
2021/06/21 10:38:37;;;;;;;0.43;0.43;;;22.80;59.00;;;;;;5073617;28;20170;-67
2021/06/21 10:41:05;;;;;;;0.50;0.50;;;22.80;59.00;;;;;;5074119;28;20190;-67
2021/06/21 10:43:43;;;;;;;0.73;0.50;;;22.80;59.00;;;;;;5073747;28;20557;-69
2021/06/21 10:46:14;;;;;;;0.93;0.68;;;22.80;59.20;;;;;;5073673;28;20174;-68
2021/06/21 10:49:00;;;;;;;0.55;0.50;;;22.80;59.20;;;;;;5073329;28;20339;-67
2021/06/21 10:51:34;;;;;;;1.20;0.50;;;22.90;59.10;;;;;;5032974;28;20237;-67
2021/06/21 10:53:59;;;;;;;1.38;0.43;;;22.90;59.20;;;;;;5073413;28;20175;-68
2021/06/21 10:56:44;;;;;;;0.57;0.50;;;22.90;59.20;;;;;;5073906;28;20582;-66
2021/06/21 10:59:11;;;;;;;0.50;0.47;;;22.80;59.20;;;;;;5073349;28;20186;-68
2021/06/21 11:01:43;;;;;;;0.85;0.57;;;22.90;59.20;;;;;;5073504;28;20217;-67
2021/06/21 11:04:09;;;;;;;0.50;0.50;;;22.90;59.10;;;;;;5073857;28;20257;-67
2021/06/21 11:06:34;;;;;;;3.20;0.70;;;23.00;59.30;;;;;;5072947;28;20261;-68
2021/06/21 11:09:00;;;;;;;0.98;0.60;;;22.90;59.00;;;;;;5073372;28;20248;-67
2021/06/21 11:11:35;;;;;;;0.90;0.60;;;22.90;58.90;;;;;;5055440;28;20268;-68
2021/06/21 11:14:17;;;;;;;2.33;0.60;;;22.90;59.00;;;;;;5073175;28;20683;-67
2021/06/21 11:16:45;;;;;;;0.50;0.50;;;22.90;59.00;;;;;;5073043;28;20655;-67
2021/06/21 11:19:13;;;;;;;0.55;0.52;;;22.90;59.00;;;;;;5073523;28;20456;-67
2021/06/21 11:21:46;;;;;;;0.88;0.60;;;22.90;59.10;;;;;;5072362;28;20171;-68
2021/06/21 11:24:11;;;;;;;1.13;0.70;;;22.90;59.10;;;;;;5073695;28;20174;-67
2021/06/21 11:27:06;;;;;;;1.23;0.55;;;23.00;59.10;;;;;;5055012;28;20245;-67
2021/06/21 11:29:34;;;;;;;2.45;0.55;;;23.00;59.10;;;;;;5043273;28;20178;-68
2021/06/21 11:32:01;;;;;;;1.65;0.68;;;23.00;59.10;;;;;;5073195;28;20214;-68
2021/06/21 11:34:56;;;;;;;1.38;0.50;;;23.00;59.00;;;;;;5072566;28;20265;-68
2021/06/21 11:37:40;;;;;;;2.08;0.68;;;23.00;59.00;;;;;;5072974;28;20178;-69
2021/06/21 11:40:15;;;;;;;0.90;0.55;;;23.10;58.90;;;;;;5073036;28;20178;-69
2021/06/21 11:43:01;;;;;;;0.75;0.55;;;23.10;59.00;;;;;;5072011;28;20209;-68
2021/06/21 11:45:49;;;;;;;0.63;0.60;;;23.00;59.00;;;;;;5058656;28;20213;-69
2021/06/21 11:48:32;;;;;;;0.70;0.60;;;23.00;59.10;;;;;;5072449;28;20197;-68
2021/06/21 11:50:59;;;;;;;0.60;0.60;;;23.00;59.10;;;;;;5072474;28;20298;-68
2021/06/21 11:53:26;;;;;;;0.73;0.73;;;22.90;59.10;;;;;;5072967;28;20198;-68
2021/06/21 11:55:52;;;;;;;1.25;0.45;;;22.90;59.00;;;;;;5072071;28;20178;-67
2021/06/21 11:58:31;;;;;;;1.48;0.50;;;22.90;59.20;;;;;;5072446;28;20638;-68
2021/06/21 12:00:57;;;;;;;0.73;0.63;;;22.90;59.20;;;;;;5072768;28;20188;-68
2021/06/21 12:03:33;;;;;;;0.60;0.55;;;22.90;59.20;;;;;;5072080;28;20259;-68
2021/06/21 12:05:59;;;;;;;1.38;0.65;;;22.90;59.10;;;;;;5072325;28;20220;-67
2021/06/21 12:08:25;;;;;;;0.40;0.40;;;22.90;59.10;;;;;;5072628;28;20178;-68
2021/06/21 12:10:50;;;;;;;1.05;0.75;;;22.90;59.10;;;;;;5071446;28;20645;-68
2021/06/21 12:13:20;;;;;;;1.55;0.70;;;22.80;59.10;;;;;;5072378;28;20206;-69
2021/06/21 12:15:46;;;;;;;0.85;0.68;;;22.90;59.10;;;;;;5072062;28;20229;-65
2021/06/21 12:18:11;;;;;;;0.95;0.50;;;22.90;59.20;;;;;;5071154;28;20601;-67
2021/06/21 12:20:37;;;;;;;0.50;0.50;;;22.80;59.10;;;;;;5083266;28;20268;-67
2021/06/21 12:23:02;;;;;;;2.20;0.50;;;22.80;59.10;;;;;;5081872;28;20668;-67
2021/06/21 12:25:35;;;;;;;2.83;0.70;;;22.80;59.10;;;;;;5071629;28;20183;-67
2021/06/21 12:28:11;;;;;;;0.90;0.70;;;22.80;59.70;;;;;;5046839;28;20206;-67
2021/06/21 12:30:54;;;;;;;3.22;1.00;;;22.80;59.00;;;;;;5051176;28;20673;-67
2021/06/21 12:33:42;;;;;;;0.77;0.50;;;22.80;59.10;;;;;;5052076;28;20182;-68
2021/06/21 12:36:11;;;;;;;0.98;0.60;;;22.80;59.20;;;;;;5039628;28;20552;-69
2021/06/21 12:38:50;;;;;;;0.50;0.50;;;22.80;59.00;;;;;;5031368;28;20180;-68
2021/06/21 12:41:18;;;;;;;0.50;0.50;;;22.80;58.90;;;;;;5031925;28;20306;-69
2021/06/21 12:44:04;;;;;;;0.70;0.50;;;22.80;59.10;;;;;;5031775;28;20183;-68
2021/06/21 12:46:33;;;;;;;0.93;0.60;;;22.80;59.00;;;;;;5031171;28;20192;-68
2021/06/21 12:49:00;;;;;;;1.85;0.57;;;22.80;59.00;;;;;;5031922;28;20180;-68
2021/06/21 12:51:25;;;;;;;1.10;0.55;;;22.80;59.00;;;;;;5030354;28;20215;-68
2021/06/21 12:53:53;;;;;;;3.22;0.60;;;22.80;59.00;;;;;;5029884;28;20198;-67